Time;durP1;ratioP1;P1;durP2;ratioP2;P2;SDS_P1;SDS_P2;PMS_P1;PMS_P2;Temp;Humidity;BMP_temperature;BMP_pressure;BME280_temperature;BME280_humidity;BME280_pressure;Samples;Min_cycle;Max_cycle;Signal;HPM_P1;HPM_P2
2021/06/06 00:03:55;;;;;;;48.83;33.85;;;16.10;99.90;;;;;;10460742;28;20500;-65
2021/06/06 00:08:58;;;;;;;52.38;34.22;;;16.10;99.90;;;;;;10460255;28;20381;-65
2021/06/06 00:14:04;;;;;;;64.40;38.58;;;16.20;99.90;;;;;;10460209;28;20044;-65
2021/06/06 00:19:07;;;;;;;58.13;36.78;;;16.10;99.90;;;;;;10460382;28;20041;-65
2021/06/06 00:24:18;;;;;;;52.03;34.97;;;16.00;99.90;;;;;;10460302;28;20051;-65
2021/06/06 00:29:21;;;;;;;57.20;35.77;;;16.00;99.90;;;;;;10460166;28;20045;-65
2021/06/06 00:34:25;;;;;;;54.03;34.22;;;16.00;99.90;;;;;;10459601;28;20052;-65
2021/06/06 00:39:27;;;;;;;54.75;34.28;;;16.00;99.90;;;;;;10459765;28;20041;-65
2021/06/06 00:44:29;;;;;;;53.22;35.50;;;16.00;99.90;;;;;;10459992;28;20041;-65
2021/06/06 00:49:31;;;;;;;59.00;36.47;;;16.00;99.90;;;;;;10458237;28;20052;-64
2021/06/06 00:54:42;;;;;;;62.25;39.20;;;15.90;99.90;;;;;;10458849;28;20044;-64
2021/06/06 00:59:59;;;;;;;65.50;37.63;;;15.90;99.90;;;;;;10458891;28;20495;-65
2021/06/06 01:05:01;;;;;;;67.40;39.15;;;15.90;99.90;;;;;;10457891;28;20049;-65
2021/06/06 01:10:05;;;;;;;63.78;37.95;;;15.80;99.90;;;;;;10458859;28;20052;-65
2021/06/06 01:15:26;;;;;;;62.13;37.65;;;15.90;99.90;;;;;;10457720;28;20056;-65
2021/06/06 01:21:19;;;;;;;59.87;38.37;;;16.00;99.90;;;;;;10457108;28;20041;-65
2021/06/06 01:26:39;;;;;;;61.85;36.92;;;16.00;99.90;;;;;;10456850;28;20059;-65
2021/06/06 01:31:45;;;;;;;57.60;35.08;;;15.90;99.90;;;;;;10457843;28;20048;-65
2021/06/06 01:36:55;;;;;;;60.70;37.25;;;15.80;99.90;;;;;;10458090;28;20045;-65
2021/06/06 01:42:05;;;;;;;62.10;35.92;;;15.90;99.90;;;;;;10456185;28;20480;-65
2021/06/06 01:47:19;;;;;;;52.85;32.35;;;15.80;99.90;;;;;;10456553;28;20048;-65
2021/06/06 01:52:27;;;;;;;59.88;36.05;;;15.80;99.90;;;;;;10455803;28;20511;-65
2021/06/06 01:57:31;;;;;;;62.35;36.40;;;15.70;99.90;;;;;;10456130;28;20037;-65
2021/06/06 02:02:33;;;;;;;60.58;36.42;;;15.80;99.90;;;;;;10455535;28;20507;-65
2021/06/06 02:07:37;;;;;;;71.88;40.00;;;15.70;99.90;;;;;;10455822;28;20466;-65
2021/06/06 02:12:43;;;;;;;63.13;33.95;;;15.70;99.90;;;;;;10455178;28;20056;-65
2021/06/06 02:17:45;;;;;;;63.08;33.95;;;15.70;99.90;;;;;;10455442;28;20041;-65
2021/06/06 02:22:47;;;;;;;55.17;33.80;;;15.70;99.90;;;;;;10456692;28;20052;-65
2021/06/06 02:28:04;;;;;;;63.67;35.47;;;15.70;99.90;;;;;;10459883;28;20048;-65
2021/06/06 02:33:32;;;;;;;53.15;32.00;;;15.70;99.90;;;;;;10464391;28;20489;-65
2021/06/06 02:38:50;;;;;;;57.33;34.53;;;15.70;99.90;;;;;;10463308;28;20044;-65
2021/06/06 02:44:05;;;;;;;59.85;35.03;;;15.60;99.90;;;;;;10464170;28;20064;-65
2021/06/06 02:49:19;;;;;;;53.63;34.30;;;15.70;99.90;;;;;;10464419;28;20037;-65
2021/06/06 02:54:33;;;;;;;68.43;36.83;;;15.80;99.90;;;;;;10462900;28;20049;-65
2021/06/06 02:59:59;;;;;;;70.78;39.05;;;15.70;99.90;;;;;;10462588;28;20373;-65
2021/06/06 03:05:02;;;;;;;80.82;43.55;;;15.60;99.90;;;;;;10462110;28;20493;-65
2021/06/06 03:10:07;;;;;;;80.82;45.70;;;15.60;99.90;;;;;;10461796;28;20376;-65
2021/06/06 03:15:12;;;;;;;80.50;45.83;;;15.60;99.90;;;;;;10461765;28;20056;-65
2021/06/06 03:20:31;;;;;;;82.72;44.83;;;15.60;99.90;;;;;;10461726;28;20041;-65
2021/06/06 03:25:42;;;;;;;72.15;43.03;;;15.70;99.90;;;;;;10462640;28;20052;-65
2021/06/06 03:30:50;;;;;;;72.93;40.40;;;15.60;99.90;;;;;;10462559;28;20052;-65
2021/06/06 03:35:52;;;;;;;64.22;37.63;;;15.60;99.90;;;;;;10461276;28;20037;-65
2021/06/06 03:40:54;;;;;;;67.45;36.78;;;15.70;99.90;;;;;;10461739;28;20055;-65
2021/06/06 03:45:56;;;;;;;69.28;40.58;;;15.70;99.90;;;;;;10461715;28;20048;-65
2021/06/06 03:50:58;;;;;;;70.43;40.50;;;15.60;99.90;;;;;;10461961;28;20037;-65
2021/06/06 03:56:00;;;;;;;65.00;39.35;;;15.60;99.90;;;;;;10461765;28;20048;-64
2021/06/06 04:01:04;;;;;;;61.15;36.63;;;15.60;99.90;;;;;;10461605;28;20045;-65
2021/06/06 04:06:06;;;;;;;59.50;36.10;;;15.70;99.90;;;;;;10461545;28;20045;-65
2021/06/06 04:11:08;;;;;;;63.05;36.42;;;15.60;99.90;;;;;;10461424;28;20044;-65
2021/06/06 04:16:10;;;;;;;69.18;41.63;;;15.60;99.90;;;;;;10460630;28;20044;-65
2021/06/06 04:21:17;;;;;;;72.03;42.67;;;15.60;99.90;;;;;;10461206;28;20069;-65
2021/06/06 04:26:21;;;;;;;73.32;43.58;;;15.60;99.90;;;;;;10460163;28;20478;-65
2021/06/06 04:31:26;;;;;;;71.30;41.08;;;15.50;99.90;;;;;;10460669;28;20043;-67
2021/06/06 04:36:28;;;;;;;69.20;40.17;;;15.60;99.90;;;;;;10460162;28;20037;-65
2021/06/06 04:41:30;;;;;;;66.50;41.17;;;15.60;99.90;;;;;;10459736;28;20037;-65
2021/06/06 04:46:32;;;;;;;79.63;43.90;;;15.60;99.90;;;;;;10459374;28;20056;-65
2021/06/06 04:51:35;;;;;;;66.07;38.60;;;15.60;99.90;;;;;;10458677;28;20081;-65
2021/06/06 04:56:37;;;;;;;66.32;38.92;;;15.60;99.90;;;;;;10459232;28;20052;-65
2021/06/06 05:01:39;;;;;;;74.57;40.90;;;15.60;99.90;;;;;;10458842;28;20045;-64
2021/06/06 05:06:41;;;;;;;67.90;37.35;;;15.50;99.90;;;;;;10458787;28;20123;-64
2021/06/06 05:11:43;;;;;;;52.70;33.45;;;15.50;99.90;;;;;;10458615;28;20052;-64
2021/06/06 05:16:45;;;;;;;49.22;30.73;;;15.40;99.90;;;;;;10458180;28;20041;-65
2021/06/06 05:21:48;;;;;;;51.65;31.42;;;15.30;99.90;;;;;;10458424;28;20127;-65
2021/06/06 05:26:51;;;;;;;55.70;30.27;;;15.40;99.90;;;;;;10457803;28;20044;-65
2021/06/06 05:31:53;;;;;;;62.42;31.92;;;15.40;99.90;;;;;;10457674;28;20487;-65
2021/06/06 05:36:55;;;;;;;54.75;29.35;;;15.40;99.90;;;;;;10457245;28;20045;-65
2021/06/06 05:41:57;;;;;;;51.83;28.77;;;15.30;99.90;;;;;;10458054;28;20063;-65
2021/06/06 05:47:00;;;;;;;53.45;30.20;;;15.40;99.90;;;;;;10457474;28;20052;-65
2021/06/06 05:52:03;;;;;;;59.78;31.88;;;15.40;99.90;;;;;;10457153;28;20548;-65
2021/06/06 05:57:06;;;;;;;59.83;30.98;;;15.40;99.90;;;;;;10456744;28;20500;-65
2021/06/06 06:02:08;;;;;;;47.15;27.30;;;15.30;99.90;;;;;;10456137;28;20056;-64
2021/06/06 06:07:10;;;;;;;51.22;29.80;;;15.40;99.90;;;;;;10456393;28;20041;-65
2021/06/06 06:12:12;;;;;;;48.72;25.83;;;15.50;99.90;;;;;;10456640;28;20055;-65
2021/06/06 06:17:14;;;;;;;48.28;26.48;;;15.50;99.90;;;;;;10456405;28;20049;-65
2021/06/06 06:22:16;;;;;;;45.33;26.38;;;15.50;99.90;;;;;;10456272;28;20451;-65
2021/06/06 06:27:18;;;;;;;43.88;26.13;;;15.50;99.90;;;;;;10456120;28;20045;-65
2021/06/06 06:32:20;;;;;;;46.50;27.05;;;15.60;99.90;;;;;;10456782;28;20072;-65
2021/06/06 06:37:25;;;;;;;52.88;30.70;;;15.60;99.90;;;;;;10456425;28;20045;-65
2021/06/06 06:42:27;;;;;;;58.97;32.50;;;15.50;99.90;;;;;;10455223;28;20037;-65
2021/06/06 06:47:30;;;;;;;55.63;31.38;;;15.70;99.90;;;;;;10455780;28;20068;-65
2021/06/06 06:52:36;;;;;;;53.20;31.35;;;15.70;99.90;;;;;;10455855;28;20053;-65
2021/06/06 06:57:38;;;;;;;49.15;30.02;;;15.60;99.90;;;;;;10456040;28;20037;-65
2021/06/06 07:02:40;;;;;;;54.13;31.63;;;15.80;99.90;;;;;;10455587;28;20392;-65
2021/06/06 07:07:42;;;;;;;49.47;29.60;;;15.80;99.90;;;;;;10455940;28;20041;-65
2021/06/06 07:12:45;;;;;;;58.15;30.63;;;15.80;99.90;;;;;;10457143;28;20052;-65
2021/06/06 07:17:48;;;;;;;57.28;33.40;;;15.80;99.90;;;;;;10463070;28;20047;-65
2021/06/06 07:22:50;;;;;;;59.08;30.30;;;15.80;99.90;;;;;;10463311;28;20469;-65
2021/06/06 07:27:54;;;;;;;45.10;29.90;;;15.90;99.90;;;;;;10462807;28;20041;-65
2021/06/06 07:32:58;;;;;;;41.58;27.17;;;15.90;99.90;;;;;;10462434;28;20127;-64
2021/06/06 07:38:01;;;;;;;44.42;27.20;;;16.00;99.90;;;;;;10462134;28;20048;-65
2021/06/06 07:43:05;;;;;;;32.60;23.45;;;16.00;99.90;;;;;;10462489;28;20041;-64
2021/06/06 07:48:08;;;;;;;33.53;23.70;;;16.10;99.90;;;;;;10461787;28;20465;-65
2021/06/06 07:53:13;;;;;;;34.38;23.10;;;16.20;99.90;;;;;;10461598;28;20052;-65
2021/06/06 07:58:27;;;;;;;29.23;21.90;;;16.30;99.90;;;;;;10461670;28;20053;-65
2021/06/06 08:03:29;;;;;;;27.15;19.52;;;16.30;99.90;;;;;;10461304;28;20045;-65
2021/06/06 08:08:32;;;;;;;28.42;20.13;;;16.40;99.90;;;;;;10461136;28;20045;-65
2021/06/06 08:13:35;;;;;;;26.05;19.23;;;16.40;99.90;;;;;;10460250;28;20106;-65
2021/06/06 08:18:43;;;;;;;24.80;18.85;;;16.40;99.90;;;;;;10461442;28;20072;-64
2021/06/06 08:23:46;;;;;;;25.60;18.98;;;16.40;99.90;;;;;;10459311;28;20053;-65
2021/06/06 08:28:51;;;;;;;26.67;19.92;;;16.60;99.90;;;;;;10461115;28;20045;-65
2021/06/06 08:33:53;;;;;;;23.20;18.25;;;16.60;99.90;;;;;;10460176;28;20060;-65
2021/06/06 08:38:58;;;;;;;21.42;17.33;;;16.70;99.90;;;;;;10459651;28;20397;-65
2021/06/06 08:44:05;;;;;;;24.00;17.25;;;16.70;99.90;;;;;;10459724;28;20041;-65
2021/06/06 08:49:07;;;;;;;23.60;16.83;;;16.60;99.90;;;;;;10459675;28;20037;-65
2021/06/06 08:54:30;;;;;;;21.95;16.70;;;16.80;99.90;;;;;;10459248;28;20045;-65
2021/06/06 08:59:46;;;;;;;20.08;16.13;;;16.80;99.90;;;;;;10459065;28;20070;-65
2021/06/06 09:04:50;;;;;;;24.63;15.50;;;16.90;99.90;;;;;;10457590;28;20507;-65
2021/06/06 09:09:52;;;;;;;16.98;14.48;;;16.90;99.90;;;;;;10458455;28;20048;-65
2021/06/06 09:14:56;;;;;;;20.83;15.02;;;17.10;99.90;;;;;;10457683;28;20041;-65
2021/06/06 09:19:59;;;;;;;18.45;14.73;;;17.20;99.90;;;;;;10458649;28;20044;-65
2021/06/06 09:25:34;;;;;;;15.68;14.13;;;17.20;99.90;;;;;;10456552;28;20051;-65
2021/06/06 09:30:37;;;;;;;14.77;13.38;;;17.40;99.90;;;;;;10457884;28;20485;-65
2021/06/06 09:36:18;;;;;;;14.10;11.82;;;17.50;99.90;;;;;;10456975;28;20389;-65
2021/06/06 09:41:38;;;;;;;11.10;9.77;;;17.80;99.90;;;;;;10431255;28;20044;-65
2021/06/06 09:47:04;;;;;;;10.98;9.88;;;17.80;99.90;;;;;;10457512;28;20056;-65
2021/06/06 09:52:41;;;;;;;10.70;9.57;;;17.90;99.90;;;;;;10457552;28;20053;-65
2021/06/06 09:57:43;;;;;;;11.45;10.18;;;17.90;99.90;;;;;;10456685;28;20401;-65
2021/06/06 10:02:52;;;;;;;10.35;8.82;;;18.10;99.90;;;;;;10456962;28;20052;-65
2021/06/06 10:08:21;;;;;;;10.00;9.00;;;18.20;99.90;;;;;;10455887;28;20092;-65
2021/06/06 10:13:33;;;;;;;10.35;9.38;;;18.40;99.90;;;;;;10456673;28;20052;-65
2021/06/06 10:19:03;;;;;;;10.52;8.23;;;18.60;99.90;;;;;;10455200;28;20045;-65
2021/06/06 10:24:29;;;;;;;10.80;8.35;;;18.70;99.90;;;;;;10455096;28;20045;-65
2021/06/06 10:29:36;;;;;;;8.88;7.07;;;18.80;99.90;;;;;;10455488;28;20045;-65
2021/06/06 10:34:54;;;;;;;10.25;7.25;;;19.30;99.90;;;;;;10454733;28;20041;-65
2021/06/06 10:40:04;;;;;;;8.00;6.55;;;19.20;99.90;;;;;;10454782;28;20448;-65
2021/06/06 10:45:25;;;;;;;7.03;6.32;;;19.20;99.90;;;;;;10455970;28;20048;-65
2021/06/06 10:50:40;;;;;;;7.47;6.03;;;19.40;99.90;;;;;;10461513;28;20037;-65
2021/06/06 10:56:14;;;;;;;6.93;6.05;;;19.40;99.90;;;;;;10463965;28;20295;-65
2021/06/06 11:01:19;;;;;;;8.75;6.65;;;19.80;99.90;;;;;;10462861;28;20041;-65
2021/06/06 11:06:32;;;;;;;7.03;6.32;;;20.20;99.90;;;;;;10463451;28;20115;-64
2021/06/06 11:11:34;;;;;;;6.82;6.15;;;20.00;99.90;;;;;;10462928;28;20485;-64
2021/06/06 11:16:47;;;;;;;5.85;5.07;;;20.30;99.90;;;;;;10462912;28;20507;-64
2021/06/06 11:22:07;;;;;;;8.75;6.38;;;20.40;99.90;;;;;;10463660;28;20055;-65
2021/06/06 11:27:14;;;;;;;5.90;5.22;;;20.50;99.90;;;;;;10462565;28;20045;-65
2021/06/06 11:32:28;;;;;;;7.55;4.80;;;20.70;99.90;;;;;;10462162;28;20473;-65
2021/06/06 11:37:42;;;;;;;8.52;5.70;;;20.60;99.90;;;;;;10462366;28;20041;-65
2021/06/06 11:42:44;;;;;;;5.47;4.97;;;20.60;99.90;;;;;;10460828;28;20494;-65
2021/06/06 11:47:53;;;;;;;7.90;5.30;;;20.50;99.90;;;;;;10461715;28;20049;-65
2021/06/06 11:53:01;;;;;;;5.35;4.85;;;20.50;99.90;;;;;;10460808;28;20067;-64
2021/06/06 11:58:16;;;;;;;5.43;4.93;;;20.70;99.90;;;;;;10459847;28;20049;-65
2021/06/06 12:03:32;;;;;;;6.13;5.60;;;20.80;99.90;;;;;;10459938;28;20041;-64
2021/06/06 12:08:37;;;;;;;7.80;4.97;;;20.60;99.90;;;;;;10461371;28;20037;-64
2021/06/06 12:13:40;;;;;;;5.18;4.50;;;20.80;99.90;;;;;;10460816;28;20053;-65
2021/06/06 12:18:46;;;;;;;6.38;4.70;;;21.00;99.90;;;;;;10460483;28;20385;-64
2021/06/06 12:24:09;;;;;;;5.95;4.38;;;21.00;99.90;;;;;;10460634;28;20045;-65
2021/06/06 12:29:12;;;;;;;5.20;4.80;;;21.10;99.90;;;;;;10460271;28;20043;-64
2021/06/06 12:34:27;;;;;;;6.32;5.18;;;21.20;99.90;;;;;;10460121;28;20049;-64
2021/06/06 12:39:30;;;;;;;4.75;4.35;;;21.30;99.90;;;;;;10459024;28;20041;-64
2021/06/06 12:44:39;;;;;;;4.70;3.95;;;21.50;99.90;;;;;;10458485;28;20492;-64
2021/06/06 12:49:58;;;;;;;5.35;4.70;;;21.80;99.90;;;;;;10458663;28;20047;-64
2021/06/06 12:55:11;;;;;;;3.70;3.40;;;21.90;99.90;;;;;;10459158;28;20469;-63
2021/06/06 13:00:43;;;;;;;5.65;5.00;;;21.90;99.90;;;;;;10459507;28;20040;-64
2021/06/06 13:05:49;;;;;;;4.57;4.15;;;21.80;99.90;;;;;;10457900;28;20048;-64
2021/06/06 13:11:00;;;;;;;3.78;3.58;;;21.70;99.90;;;;;;10457900;28;20397;-63
2021/06/06 13:16:36;;;;;;;5.47;3.50;;;21.60;99.90;;;;;;10458225;28;20389;-65
2021/06/06 13:21:47;;;;;;;5.15;3.90;;;21.50;99.90;;;;;;10458075;28;20072;-64
2021/06/06 13:26:55;;;;;;;5.82;3.70;;;21.40;99.90;;;;;;10456658;28;20480;-64
2021/06/06 13:32:25;;;;;;;7.63;3.40;;;21.20;99.90;;;;;;10457739;28;20041;-64
2021/06/06 13:37:31;;;;;;;3.33;3.00;;;21.30;99.90;;;;;;10457394;28;20481;-64
2021/06/06 13:42:33;;;;;;;2.75;2.33;;;21.30;99.90;;;;;;10457571;28;20045;-64
2021/06/06 13:47:37;;;;;;;5.30;3.28;;;21.40;99.90;;;;;;10457327;28;20095;-64
2021/06/06 13:52:40;;;;;;;3.50;3.20;;;21.50;99.90;;;;;;10456018;28;20055;-65
2021/06/06 13:57:42;;;;;;;3.08;2.70;;;21.50;99.90;;;;;;10456742;28;20385;-64
2021/06/06 14:02:47;;;;;;;5.70;2.53;;;21.60;99.90;;;;;;10457327;28;20045;-64
2021/06/06 14:07:50;;;;;;;4.20;2.40;;;21.70;99.90;;;;;;10455703;28;20041;-64
2021/06/06 14:12:52;;;;;;;2.42;2.22;;;21.70;99.90;;;;;;10457075;28;20053;-64
2021/06/06 14:17:55;;;;;;;3.50;2.42;;;21.70;99.90;;;;;;10456570;28;20041;-65
2021/06/06 14:22:58;;;;;;;3.55;2.70;;;21.80;99.90;;;;;;10460411;28;20045;-64
2021/06/06 14:28:01;;;;;;;3.03;2.65;;;21.70;99.90;;;;;;10465599;28;20053;-64
2021/06/06 14:33:04;;;;;;;2.45;2.25;;;21.70;99.90;;;;;;10464439;28;20045;-64
2021/06/06 14:38:09;;;;;;;3.28;2.55;;;21.60;99.90;;;;;;10464658;28;20055;-64
2021/06/06 14:43:15;;;;;;;3.25;2.10;;;21.70;99.90;;;;;;10464575;28;20049;-65
2021/06/06 14:48:22;;;;;;;3.80;2.28;;;21.70;99.90;;;;;;10464055;28;20049;-65
2021/06/06 14:53:28;;;;;;;2.53;2.33;;;21.60;99.90;;;;;;10462869;28;20044;-65
2021/06/06 14:58:33;;;;;;;3.20;2.95;;;21.60;99.90;;;;;;10462513;28;20037;-63
2021/06/06 15:03:36;;;;;;;2.60;2.40;;;21.50;99.90;;;;;;10460909;28;20099;-62
2021/06/06 15:08:38;;;;;;;3.67;2.60;;;21.50;99.90;;;;;;10463259;28;20041;-65
2021/06/06 15:13:45;;;;;;;2.53;2.33;;;21.60;99.90;;;;;;10463140;28;20049;-65
2021/06/06 15:18:52;;;;;;;3.65;2.50;;;21.70;99.90;;;;;;10463049;28;20128;-65
2021/06/06 15:23:58;;;;;;;4.20;2.72;;;21.70;99.90;;;;;;10462534;28;20503;-65
2021/06/06 15:29:00;;;;;;;4.53;2.70;;;21.60;99.90;;;;;;10462492;28;20044;-65
2021/06/06 15:34:07;;;;;;;2.10;2.00;;;21.70;99.90;;;;;;10461982;28;20056;-65
2021/06/06 15:39:13;;;;;;;3.08;2.40;;;21.80;99.90;;;;;;10462145;28;20396;-65
2021/06/06 15:44:18;;;;;;;2.95;2.50;;;22.00;99.90;;;;;;10477320;28;20041;-65
2021/06/06 15:49:20;;;;;;;3.70;2.45;;;21.90;99.90;;;;;;10461969;28;20042;-66
2021/06/06 15:54:27;;;;;;;4.57;3.03;;;21.90;99.90;;;;;;10461511;28;20041;-64
2021/06/06 15:59:30;;;;;;;2.92;2.22;;;21.80;99.90;;;;;;10461847;28;20388;-65
2021/06/06 16:04:32;;;;;;;3.67;2.17;;;21.80;99.90;;;;;;10461087;28;20052;-66
2021/06/06 16:09:35;;;;;;;3.10;2.42;;;21.80;99.90;;;;;;10461238;28;20041;-65
2021/06/06 16:14:37;;;;;;;3.40;2.63;;;21.90;99.90;;;;;;10475967;28;20053;-66
2021/06/06 16:19:38;;;;;;;4.13;2.78;;;21.80;99.90;;;;;;10460576;28;20491;-64
2021/06/06 16:24:40;;;;;;;4.28;2.70;;;21.80;99.90;;;;;;10460294;28;20071;-65
2021/06/06 16:29:42;;;;;;;2.50;2.30;;;21.60;99.90;;;;;;10460475;28;20047;-65
2021/06/06 16:34:44;;;;;;;2.80;2.20;;;21.80;99.90;;;;;;10458844;28;20040;-64
2021/06/06 16:39:46;;;;;;;3.38;2.17;;;21.70;99.90;;;;;;10459860;28;20476;-65
2021/06/06 16:44:48;;;;;;;2.83;2.10;;;21.70;99.90;;;;;;10458569;28;20052;-64
2021/06/06 16:49:51;;;;;;;3.65;2.00;;;21.50;99.90;;;;;;10459828;28;20123;-64
2021/06/06 16:54:53;;;;;;;3.78;2.28;;;21.70;99.90;;;;;;10459281;28;20045;-64
2021/06/06 16:59:55;;;;;;;2.30;1.83;;;21.60;99.90;;;;;;10459006;28;20381;-64
2021/06/06 17:04:57;;;;;;;4.25;2.53;;;21.50;99.90;;;;;;10458624;28;20519;-65
2021/06/06 17:09:59;;;;;;;3.60;2.58;;;21.40;99.90;;;;;;10457436;28;20049;-64
2021/06/06 17:15:01;;;;;;;3.83;2.45;;;21.50;99.90;;;;;;10458104;28;20041;-64
2021/06/06 17:20:05;;;;;;;5.80;2.53;;;21.50;99.90;;;;;;10458178;28;20477;-64
2021/06/06 17:25:08;;;;;;;3.58;3.28;;;21.40;99.90;;;;;;10458522;28;20056;-64
2021/06/06 17:30:15;;;;;;;4.45;2.78;;;21.20;99.90;;;;;;10458102;28;20036;-64
2021/06/06 17:35:22;;;;;;;4.63;3.35;;;21.40;99.90;;;;;;10456400;28;20051;-64
2021/06/06 17:40:24;;;;;;;7.85;3.90;;;21.30;99.90;;;;;;10473039;28;20049;-64
2021/06/06 17:45:26;;;;;;;6.13;4.43;;;21.30;99.90;;;;;;10457334;28;20041;-64
2021/06/06 17:50:34;;;;;;;3.67;2.95;;;21.20;99.90;;;;;;10457571;28;20044;-64
2021/06/06 17:55:43;;;;;;;4.97;3.80;;;21.20;99.90;;;;;;10456960;28;20080;-64
2021/06/06 18:00:46;;;;;;;5.90;3.90;;;21.30;99.90;;;;;;10472817;28;20036;-64
2021/06/06 18:05:48;;;;;;;5.90;4.65;;;21.20;99.90;;;;;;10456773;28;20070;-64
2021/06/06 18:10:54;;;;;;;6.20;4.32;;;21.20;99.90;;;;;;10456815;28;20045;-64
2021/06/06 18:15:59;;;;;;;5.32;3.75;;;21.00;99.90;;;;;;10456385;28;20041;-65
2021/06/06 18:21:10;;;;;;;4.32;3.92;;;21.10;99.90;;;;;;10456726;28;20049;-64
2021/06/06 18:26:12;;;;;;;4.97;4.35;;;21.00;99.90;;;;;;10456934;28;20048;-63
2021/06/06 18:31:19;;;;;;;4.32;3.47;;;21.00;99.90;;;;;;10456436;28;20478;-65
2021/06/06 18:36:25;;;;;;;6.35;3.15;;;20.80;99.90;;;;;;10456036;28;20040;-65
2021/06/06 18:41:29;;;;;;;2.90;1.52;;;20.70;99.90;;;;;;10456432;28;20041;-64
2021/06/06 18:46:33;;;;;;;3.85;1.77;;;20.70;99.90;;;;;;10455994;28;20056;-64
2021/06/06 18:51:36;;;;;;;5.45;2.03;;;20.60;99.90;;;;;;10455717;28;20055;-64
2021/06/06 18:56:41;;;;;;;5.05;2.05;;;20.50;99.90;;;;;;10455701;28;20106;-65
2021/06/06 19:01:43;;;;;;;3.80;1.40;;;20.40;99.90;;;;;;10455911;28;20037;-64
2021/06/06 19:06:47;;;;;;;3.83;1.88;;;20.40;99.90;;;;;;10455325;28;20481;-64
2021/06/06 19:11:56;;;;;;;4.50;1.70;;;20.40;99.90;;;;;;10461098;28;20484;-64
2021/06/06 19:17:14;;;;;;;4.13;1.25;;;20.30;99.90;;;;;;10440455;28;20098;-65
2021/06/06 19:22:16;;;;;;;1.77;1.65;;;20.30;99.90;;;;;;10462929;28;20469;-64
2021/06/06 19:27:19;;;;;;;4.68;1.50;;;20.10;99.90;;;;;;10462602;28;20047;-64
2021/06/06 19:32:24;;;;;;;4.35;2.40;;;20.00;99.90;;;;;;10462832;28;20041;-64
2021/06/06 19:37:26;;;;;;;3.05;2.40;;;20.00;99.90;;;;;;10462211;28;20056;-64
2021/06/06 19:42:28;;;;;;;2.80;2.50;;;19.90;99.90;;;;;;10462471;28;20041;-65
2021/06/06 19:47:30;;;;;;;4.45;3.20;;;19.80;99.90;;;;;;10462124;28;20041;-64
2021/06/06 19:52:32;;;;;;;5.35;2.70;;;19.60;99.90;;;;;;10461995;28;20045;-65
2021/06/06 19:57:34;;;;;;;6.70;2.15;;;19.60;99.90;;;;;;10461569;28;20041;-64
2021/06/06 20:02:36;;;;;;;3.17;1.83;;;19.50;99.90;;;;;;10461292;28;20052;-65
2021/06/06 20:07:39;;;;;;;3.75;1.50;;;19.40;99.90;;;;;;10461247;28;20476;-64
2021/06/06 20:12:41;;;;;;;3.20;1.55;;;19.30;99.90;;;;;;10460992;28;20048;-64
2021/06/06 20:17:43;;;;;;;6.35;2.10;;;19.20;99.90;;;;;;10460730;28;20067;-65
2021/06/06 20:22:48;;;;;;;4.97;2.08;;;19.10;99.90;;;;;;10460536;28;20116;-64
2021/06/06 20:27:50;;;;;;;6.57;2.20;;;18.90;99.90;;;;;;10459369;28;20044;-65
2021/06/06 20:32:57;;;;;;;2.45;1.67;;;18.80;99.90;;;;;;10460294;28;20051;-64
2021/06/06 20:37:59;;;;;;;6.25;2.65;;;18.80;99.90;;;;;;10460312;28;20052;-63
2021/06/06 20:43:03;;;;;;;10.80;3.10;;;18.60;99.90;;;;;;10475573;28;20056;-64
2021/06/06 20:48:10;;;;;;;4.00;2.72;;;18.40;99.90;;;;;;10458550;28;20504;-65
2021/06/06 20:53:15;;;;;;;3.92;2.42;;;18.20;99.90;;;;;;10474934;28;20052;-64
2021/06/06 20:58:17;;;;;;;6.07;2.17;;;18.10;99.90;;;;;;10459225;28;20048;-65
2021/06/06 21:03:23;;;;;;;3.30;1.95;;;18.10;99.90;;;;;;10459005;28;20041;-66
2021/06/06 21:08:26;;;;;;;3.67;2.08;;;17.90;99.90;;;;;;10458764;28;20048;-65
2021/06/06 21:13:29;;;;;;;6.32;2.35;;;17.80;99.90;;;;;;10458202;28;20400;-64
2021/06/06 21:18:31;;;;;;;5.55;2.33;;;17.50;99.90;;;;;;10458385;28;20531;-65
2021/06/06 21:23:34;;;;;;;5.88;2.08;;;17.40;99.90;;;;;;10458222;28;20048;-65
2021/06/06 21:28:42;;;;;;;2.50;2.00;;;17.30;99.90;;;;;;10473740;28;20045;-66
2021/06/06 21:33:45;;;;;;;5.35;2.28;;;17.30;99.90;;;;;;10457290;28;20045;-66
2021/06/06 21:38:48;;;;;;;3.22;2.28;;;17.10;99.90;;;;;;10456195;28;20481;-65
2021/06/06 21:43:50;;;;;;;5.38;2.20;;;17.00;99.90;;;;;;10457662;28;20041;-64
2021/06/06 21:48:52;;;;;;;3.85;2.38;;;16.90;99.90;;;;;;10473090;28;20059;-65
2021/06/06 21:53:54;;;;;;;2.33;2.13;;;16.70;99.90;;;;;;10457144;28;20041;-65
2021/06/06 21:58:56;;;;;;;4.03;2.42;;;16.60;99.90;;;;;;10457030;28;20055;-65
2021/06/06 22:03:59;;;;;;;3.65;2.33;;;16.50;99.90;;;;;;10456628;28;20044;-65
2021/06/06 22:09:10;;;;;;;5.43;2.08;;;16.50;99.90;;;;;;10456708;28;20408;-66
2021/06/06 22:14:13;;;;;;;3.15;2.33;;;16.30;99.90;;;;;;10456659;28;20055;-65
2021/06/06 22:20:11;;;;;;;3.05;2.20;;;16.20;99.90;;;;;;10456447;28;20527;-65
2021/06/06 22:26:09;;;;;;;6.93;2.65;;;16.20;99.90;;;;;;10456785;28;20037;-65
2021/06/06 22:32:07;;;;;;;9.75;2.75;;;16.10;99.90;;;;;;10456946;28;20037;-65
2021/06/06 22:38:05;;;;;;;7.53;2.78;;;16.00;99.90;;;;;;10456371;28;20044;-65
2021/06/06 22:44:03;;;;;;;6.20;2.30;;;15.80;99.90;;;;;;10456593;28;20056;-65
2021/06/06 22:50:01;;;;;;;3.00;2.17;;;15.70;99.90;;;;;;10464902;28;20048;-66
2021/06/06 22:56:00;;;;;;;4.25;2.95;;;15.70;99.90;;;;;;10463913;28;20048;-66
2021/06/06 23:01:58;;;;;;;5.75;2.80;;;15.50;99.90;;;;;;10463856;28;20485;-65
2021/06/06 23:07:56;;;;;;;3.45;2.45;;;15.50;99.90;;;;;;10463665;28;20063;-65
2021/06/06 23:13:55;;;;;;;6.65;2.80;;;15.40;99.90;;;;;;10463538;28;20052;-65
2021/06/06 23:18:57;;;;;;;2.67;2.42;;;15.40;99.90;;;;;;10463431;28;20056;-66
2021/06/06 23:23:59;;;;;;;8.02;3.67;;;15.30;99.90;;;;;;10462913;28;20041;-65
2021/06/06 23:29:05;;;;;;;6.15;2.95;;;15.20;99.90;;;;;;10463146;28;20049;-65
2021/06/06 23:34:07;;;;;;;5.55;3.20;;;15.20;99.90;;;;;;10462739;28;20052;-66
2021/06/06 23:39:09;;;;;;;6.50;3.72;;;14.90;99.90;;;;;;10461627;28;20075;-66
2021/06/06 23:44:12;;;;;;;7.13;3.17;;;14.90;99.90;;;;;;10461830;28;20040;-65
2021/06/06 23:49:15;;;;;;;7.93;4.00;;;14.90;99.90;;;;;;10462128;28;20045;-65
2021/06/06 23:54:18;;;;;;;4.82;4.13;;;14.90;99.90;;;;;;10461086;28;20045;-65
2021/06/06 23:59:20;;;;;;;4.55;3.70;;;14.70;99.90;;;;;;10461610;28;20052;-66
